createdAt,value
2019-03-26T00:00:15.916Z,65.73
2019-03-26T00:02:45.255Z,65.47
2019-03-26T00:05:14.310Z,65.35
2019-03-26T00:07:43.356Z,65.36
2019-03-26T00:10:12.418Z,65.25
2019-03-26T00:12:41.740Z,65.09
2019-03-26T00:15:10.867Z,64.90
2019-03-26T00:17:39.997Z,64.92
2019-03-26T00:20:09.070Z,64.93
2019-03-26T00:22:38.464Z,65.01
2019-03-26T00:25:07.508Z,64.98
2019-03-26T00:27:36.571Z,65.58
2019-03-26T00:30:06.066Z,65.03
2019-03-26T00:32:35.160Z,65.52
2019-03-26T00:35:04.216Z,65.02
2019-03-26T00:37:33.276Z,65.02
2019-03-26T00:40:02.306Z,64.80
2019-03-26T00:42:31.339Z,64.70
2019-03-26T00:45:00.434Z,65.25
2019-03-26T00:47:29.496Z,65.01
2019-03-26T00:49:58.530Z,64.74
2019-03-26T00:52:27.581Z,64.99
2019-03-26T00:54:56.635Z,65.39
2019-03-26T00:57:25.686Z,65.34
2019-03-26T00:59:55.038Z,64.97
2019-03-26T01:02:24.112Z,64.88
2019-03-26T01:04:53.142Z,64.92
2019-03-26T01:07:22.206Z,65.13
2019-03-26T01:09:51.257Z,64.53
2019-03-26T01:12:20.325Z,64.51
2019-03-26T01:14:49.374Z,64.52
2019-03-26T01:17:18.428Z,64.07
2019-03-26T01:19:47.460Z,64.13
2019-03-26T01:22:16.504Z,64.15
2019-03-26T01:24:45.556Z,64.20
2019-03-26T01:27:14.602Z,63.94
2019-03-26T01:29:43.898Z,63.85
2019-03-26T01:32:13.243Z,64.07
2019-03-26T01:34:46.115Z,64.20
2019-03-26T01:37:13.183Z,64.43
2019-03-26T01:39:42.350Z,64.21
2019-03-26T01:42:11.426Z,64.03
2019-03-26T01:44:40.481Z,64.03
2019-03-26T01:47:09.524Z,64.00
2019-03-26T01:49:38.560Z,64.13
2019-03-26T01:52:07.598Z,64.21
2019-03-26T01:54:36.625Z,64.18
2019-03-26T01:57:05.687Z,64.08
2019-03-26T01:59:34.735Z,63.99
2019-03-26T02:02:04.202Z,63.93
2019-03-26T02:04:33.500Z,63.84
2019-03-26T02:07:02.534Z,63.80
2019-03-26T02:09:31.553Z,63.96
2019-03-26T02:12:01.250Z,64.32
2019-03-26T02:14:30.321Z,64.32
2019-03-26T02:16:59.363Z,64.20
2019-03-26T02:19:28.405Z,64.28
2019-03-26T02:21:57.428Z,63.99
2019-03-26T02:24:26.446Z,64.17
2019-03-26T02:26:55.493Z,64.12
2019-03-26T02:29:24.533Z,63.97
2019-03-26T02:31:53.593Z,64.12
2019-03-26T02:34:22.615Z,64.26
2019-03-26T02:36:52.755Z,64.08
2019-03-26T02:39:21.865Z,64.11
2019-03-26T02:41:50.975Z,64.18
2019-03-26T02:44:20.034Z,64.29
2019-03-26T02:46:49.343Z,64.32
2019-03-26T02:49:18.425Z,64.31
2019-03-26T02:51:47.739Z,64.57
2019-03-26T02:54:17.045Z,64.47
2019-03-26T02:56:46.089Z,64.47
2019-03-26T02:59:15.105Z,64.42
2019-03-26T03:01:44.156Z,64.38
2019-03-26T03:04:13.211Z,64.16
2019-03-26T03:06:42.546Z,64.29
2019-03-26T03:09:11.579Z,64.36
2019-03-26T03:11:40.609Z,64.27
2019-03-26T03:14:09.643Z,64.34
2019-03-26T03:16:38.702Z,64.24
2019-03-26T03:19:07.726Z,64.28
2019-03-26T03:21:36.760Z,64.16
2019-03-26T03:24:05.841Z,64.41
2019-03-26T03:26:34.875Z,64.54
2019-03-26T03:29:03.934Z,64.99
2019-03-26T03:31:32.966Z,64.72
2019-03-26T03:34:02.269Z,64.65
2019-03-26T03:36:32.079Z,64.73
2019-03-26T03:39:01.120Z,64.65
2019-03-26T03:41:30.193Z,64.68
2019-03-26T03:43:59.225Z,64.87
2019-03-26T03:46:28.274Z,65.01
2019-03-26T03:48:57.311Z,65.17
2019-03-26T03:51:26.462Z,65.35
2019-03-26T03:53:55.546Z,65.14
2019-03-26T03:56:25.084Z,64.94
2019-03-26T03:58:54.091Z,64.98
2019-03-26T04:01:23.137Z,64.64
2019-03-26T04:03:52.189Z,64.61
2019-03-26T04:06:21.227Z,64.59
2019-03-26T04:08:50.409Z,64.66
2019-03-26T04:11:19.442Z,64.62
2019-03-26T04:13:48.514Z,64.59
2019-03-26T04:16:17.555Z,64.89
2019-03-26T04:18:46.588Z,64.88
2019-03-26T04:21:15.613Z,64.93
2019-03-26T04:23:44.648Z,64.76
2019-03-26T04:26:13.709Z,65.15
2019-03-26T04:28:42.776Z,65.10
2019-03-26T04:31:11.823Z,64.93
2019-03-26T04:33:40.883Z,64.87
2019-03-26T04:36:24.582Z,64.82
2019-03-26T04:38:40.705Z,64.99
2019-03-26T04:41:09.813Z,65.05
2019-03-26T04:43:38.858Z,65.41
2019-03-26T04:46:07.884Z,65.61
2019-03-26T04:48:36.920Z,65.56
2019-03-26T04:51:05.953Z,65.51
2019-03-26T04:53:34.992Z,65.51
2019-03-26T04:56:04.036Z,65.39
2019-03-26T04:58:33.071Z,65.53
2019-03-26T05:01:02.191Z,65.58
2019-03-26T05:03:31.213Z,65.53
2019-03-26T05:06:00.256Z,65.57
2019-03-26T05:08:29.294Z,65.52
2019-03-26T05:10:58.329Z,65.37
2019-03-26T05:13:27.356Z,65.42
2019-03-26T05:15:56.400Z,65.42
2019-03-26T05:18:25.438Z,65.32
2019-03-26T05:20:54.495Z,64.93
2019-03-26T05:23:23.547Z,64.98
2019-03-26T05:25:53.319Z,65.13
2019-03-26T05:28:22.716Z,65.16
2019-03-26T05:30:51.753Z,65.63
2019-03-26T05:33:20.810Z,65.91
2019-03-26T05:35:51.620Z,65.85
2019-03-26T05:38:20.613Z,65.71
2019-03-26T05:40:49.914Z,65.70
2019-03-26T05:43:19.006Z,65.71
2019-03-26T05:45:48.310Z,65.98
2019-03-26T05:48:17.455Z,65.91
2019-03-26T05:50:46.507Z,66.00
2019-03-26T05:53:15.825Z,66.98
2019-03-26T05:55:44.893Z,66.04
2019-03-26T05:58:14.003Z,63.69
2019-03-26T06:00:43.113Z,62.58
2019-03-26T06:03:12.226Z,60.93
2019-03-26T06:05:41.285Z,61.14
2019-03-26T06:08:10.417Z,61.42
2019-03-26T06:10:39.457Z,60.60
2019-03-26T06:13:08.577Z,58.98
2019-03-26T06:15:37.686Z,61.05
2019-03-26T06:18:06.869Z,63.08
2019-03-26T06:20:35.937Z,63.95
2019-03-26T06:23:05.653Z,64.12
2019-03-26T06:25:34.682Z,64.05
2019-03-26T06:28:03.807Z,64.26
2019-03-26T06:30:32.844Z,64.09
2019-03-26T06:33:02.240Z,63.81
2019-03-26T06:35:31.264Z,63.01
2019-03-26T06:38:00.319Z,63.65
2019-03-26T06:40:29.353Z,62.88
2019-03-26T06:42:58.494Z,62.90
2019-03-26T06:45:27.930Z,63.32
2019-03-26T06:47:57.063Z,63.19
2019-03-26T06:50:26.236Z,63.25
2019-03-26T06:52:55.739Z,63.20
2019-03-26T06:55:24.872Z,63.28
2019-03-26T06:57:54.008Z,63.43
2019-03-26T07:00:30.811Z,63.63
2019-03-26T07:03:01.281Z,63.61
2019-03-26T07:05:30.445Z,63.61
2019-03-26T07:07:59.435Z,63.51
2019-03-26T07:10:28.789Z,63.21
2019-03-26T07:12:58.316Z,63.21
2019-03-26T07:15:27.421Z,63.12
2019-03-26T07:17:56.551Z,63.16
2019-03-26T07:20:25.584Z,63.28
2019-03-26T07:22:54.723Z,63.05
2019-03-26T07:25:23.920Z,63.19
2019-03-26T07:27:52.965Z,63.14
2019-03-26T07:30:39.233Z,63.19
2019-03-26T07:33:08.293Z,63.34
2019-03-26T07:35:37.367Z,63.14
2019-03-26T07:38:06.519Z,63.05
2019-03-26T07:40:35.861Z,63.34
2019-03-26T07:43:05.212Z,63.51
2019-03-26T07:45:34.325Z,63.83
2019-03-26T07:48:03.501Z,63.37
2019-03-26T07:50:32.851Z,63.77
2019-03-26T07:53:01.904Z,63.48
2019-03-26T07:55:31.024Z,63.71
2019-03-26T07:58:00.158Z,64.12
2019-03-26T08:00:38.702Z,63.76
2019-03-26T08:03:08.019Z,63.49
2019-03-26T08:05:37.389Z,63.45
2019-03-26T08:08:06.537Z,63.47
2019-03-26T08:10:35.749Z,63.46
2019-03-26T08:13:04.793Z,63.26
2019-03-26T08:15:33.950Z,62.82
2019-03-26T08:18:02.970Z,62.84
2019-03-26T08:20:32.117Z,62.78
2019-03-26T08:23:01.155Z,62.56
2019-03-26T08:25:30.286Z,62.58
2019-03-26T08:27:59.409Z,62.62
2019-03-26T08:30:28.465Z,62.58
2019-03-26T08:32:57.516Z,62.33
2019-03-26T08:35:26.698Z,62.58
2019-03-26T08:37:55.719Z,62.50
2019-03-26T08:40:25.190Z,62.42
2019-03-26T08:42:54.381Z,62.23
2019-03-26T08:45:23.462Z,61.77
2019-03-26T08:47:52.902Z,61.54
2019-03-26T08:50:21.937Z,60.57
2019-03-26T08:52:51.154Z,60.76
2019-03-26T08:55:20.354Z,60.83
2019-03-26T08:57:49.476Z,60.37
2019-03-26T09:00:18.814Z,60.62
2019-03-26T09:02:47.948Z,60.55
2019-03-26T09:05:17.060Z,60.73
2019-03-26T09:07:46.413Z,61.60
2019-03-26T09:10:16.724Z,63.29
2019-03-26T09:12:46.304Z,64.37
2019-03-26T09:15:15.619Z,65.91
2019-03-26T09:17:44.973Z,64.67
2019-03-26T09:20:14.206Z,66.19
2019-03-26T09:22:43.249Z,66.57
2019-03-26T09:25:12.377Z,65.64
2019-03-26T09:27:41.508Z,65.22
2019-03-26T09:30:10.664Z,64.46
2019-03-26T09:32:39.945Z,63.98
2019-03-26T09:35:09.193Z,63.54
2019-03-26T09:37:38.500Z,63.22
2019-03-26T09:40:08.153Z,63.29
2019-03-26T09:42:37.382Z,63.04
2019-03-26T09:45:07.532Z,62.75
2019-03-26T09:47:36.670Z,62.06
2019-03-26T09:50:06.411Z,61.90
2019-03-26T09:52:35.535Z,61.77
2019-03-26T09:55:04.973Z,60.91
2019-03-26T09:57:34.097Z,61.22
2019-03-26T10:00:03.184Z,61.29
2019-03-26T10:02:32.308Z,60.94
2019-03-26T10:05:01.358Z,61.00
2019-03-26T10:07:30.570Z,61.07
2019-03-26T10:09:59.684Z,60.62
2019-03-26T10:12:28.791Z,60.51
2019-03-26T10:14:57.820Z,60.80
2019-03-26T10:17:27.190Z,60.12
2019-03-26T10:19:56.327Z,60.21
2019-03-26T10:22:25.788Z,60.61
2019-03-26T10:24:54.924Z,59.75
2019-03-26T10:27:24.037Z,59.63
2019-03-26T10:29:53.122Z,59.85
2019-03-26T10:32:22.231Z,59.67
2019-03-26T10:34:51.267Z,60.14
2019-03-26T10:37:20.408Z,59.93
2019-03-26T10:39:49.465Z,60.44
2019-03-26T10:42:18.593Z,60.11
2019-03-26T10:44:47.704Z,60.21
2019-03-26T10:47:16.812Z,60.03
2019-03-26T10:49:45.975Z,60.22
2019-03-26T10:52:15.068Z,59.87
2019-03-26T10:54:44.957Z,59.95
2019-03-26T10:57:14.015Z,59.73
2019-03-26T10:59:43.141Z,59.61
2019-03-26T11:02:12.335Z,59.01
2019-03-26T11:04:41.463Z,59.78
2019-03-26T11:07:10.595Z,59.69
2019-03-26T11:09:39.713Z,58.87
2019-03-26T11:12:08.782Z,58.41
2019-03-26T11:14:37.804Z,58.12
2019-03-26T11:17:06.857Z,58.33
2019-03-26T11:19:35.992Z,56.75
2019-03-26T11:22:05.066Z,57.60
2019-03-26T11:24:34.121Z,56.58
2019-03-26T11:27:03.436Z,56.80
2019-03-26T11:29:32.556Z,57.31
2019-03-26T11:32:01.617Z,56.60
2019-03-26T11:34:30.741Z,57.04
2019-03-26T11:36:59.884Z,56.13
2019-03-26T11:39:32.966Z,55.45
2019-03-26T11:41:59.893Z,56.46
2019-03-26T11:44:28.960Z,56.09
2019-03-26T11:46:58.316Z,56.63
2019-03-26T11:49:27.348Z,55.92
2019-03-26T11:51:56.449Z,54.88
2019-03-26T11:54:25.807Z,56.33
2019-03-26T11:56:54.928Z,56.87
2019-03-26T11:59:24.156Z,57.14
2019-03-26T12:01:53.205Z,56.87
2019-03-26T12:04:22.228Z,56.93
2019-03-26T12:06:51.251Z,57.12
2019-03-26T12:09:20.319Z,56.58
2019-03-26T12:11:50.911Z,57.40
2019-03-26T12:14:19.960Z,57.40
2019-03-26T12:16:49.077Z,57.65
2019-03-26T12:19:18.235Z,58.22
2019-03-26T12:21:47.292Z,59.19
2019-03-26T12:24:16.428Z,60.08
2019-03-26T12:26:45.518Z,60.23
2019-03-26T12:29:14.635Z,60.47
2019-03-26T12:31:43.877Z,60.46
2019-03-26T12:34:13.001Z,60.46
2019-03-26T12:36:42.093Z,60.63
2019-03-26T12:39:11.186Z,59.98
2019-03-26T12:41:40.292Z,59.74
2019-03-26T12:44:09.361Z,59.46
2019-03-26T12:46:38.489Z,59.52
2019-03-26T12:49:07.570Z,59.57
2019-03-26T12:51:39.173Z,59.72
2019-03-26T12:54:07.534Z,59.89
2019-03-26T12:56:36.646Z,60.03
2019-03-26T12:59:05.693Z,59.89
2019-03-26T13:01:34.817Z,59.51
2019-03-26T13:04:12.569Z,59.80
2019-03-26T13:06:34.615Z,59.78
2019-03-26T13:09:05.125Z,59.84
2019-03-26T13:11:34.250Z,59.68
2019-03-26T13:14:03.641Z,59.68
2019-03-26T13:16:32.766Z,59.69
2019-03-26T13:19:01.909Z,59.60
2019-03-26T13:21:31.036Z,59.58
2019-03-26T13:24:00.105Z,59.62
2019-03-26T13:26:29.189Z,59.57
2019-03-26T13:28:58.247Z,59.38
2019-03-26T13:31:27.312Z,59.35
2019-03-26T13:33:56.682Z,59.27
2019-03-26T13:36:25.708Z,59.05
2019-03-26T13:38:55.194Z,59.19
2019-03-26T13:41:24.224Z,58.99
2019-03-26T13:43:53.264Z,58.90
2019-03-26T13:46:22.297Z,58.89
2019-03-26T13:48:51.456Z,59.17
2019-03-26T13:51:20.497Z,59.07
2019-03-26T13:53:49.908Z,59.08
2019-03-26T13:56:19.331Z,59.20
2019-03-26T13:58:48.693Z,59.21
2019-03-26T14:01:17.801Z,59.09
2019-03-26T14:03:46.825Z,59.14
2019-03-26T14:06:15.882Z,59.09
2019-03-26T14:08:44.940Z,58.77
2019-03-26T14:11:13.960Z,58.94
2019-03-26T14:13:43.029Z,58.61
2019-03-26T14:16:12.142Z,58.92
2019-03-26T14:18:41.200Z,58.97
2019-03-26T14:21:10.252Z,58.81
2019-03-26T14:23:39.390Z,58.61
2019-03-26T14:26:08.420Z,58.55
2019-03-26T14:28:37.550Z,58.78
2019-03-26T14:31:06.673Z,58.77
2019-03-26T14:33:35.714Z,58.94
2019-03-26T14:36:04.833Z,58.99
2019-03-26T14:38:33.956Z,58.81
2019-03-26T14:41:03.169Z,58.97
2019-03-26T14:43:32.196Z,59.17
2019-03-26T14:46:01.296Z,59.10
2019-03-26T14:48:31.222Z,59.10
2019-03-26T14:51:00.416Z,59.12
2019-03-26T14:53:29.619Z,59.26
2019-03-26T14:55:58.656Z,59.23
2019-03-26T14:58:27.711Z,59.08
2019-03-26T15:00:59.592Z,59.12
2019-03-26T15:03:27.614Z,59.14
2019-03-26T15:05:56.915Z,59.01
2019-03-26T15:08:25.963Z,58.93
2019-03-26T15:11:07.514Z,58.56
2019-03-26T15:13:25.850Z,58.55
2019-03-26T15:15:54.983Z,58.63
2019-03-26T15:18:24.026Z,58.86
2019-03-26T15:20:53.158Z,59.08
2019-03-26T15:23:22.223Z,59.06
2019-03-26T15:25:51.353Z,59.06
2019-03-26T15:28:20.472Z,59.41
2019-03-26T15:30:49.584Z,59.50
2019-03-26T15:33:18.708Z,59.68
2019-03-26T15:35:47.843Z,59.96
2019-03-26T15:38:16.988Z,60.02
2019-03-26T15:40:46.221Z,59.94
2019-03-26T15:43:15.519Z,59.88
2019-03-26T15:45:44.553Z,60.15
2019-03-26T15:48:14.134Z,60.14
2019-03-26T15:50:44.361Z,60.14
2019-03-26T15:53:13.623Z,60.33
2019-03-26T15:55:42.690Z,60.31
2019-03-26T15:58:11.824Z,60.34
2019-03-26T16:00:40.864Z,60.60
2019-03-26T16:03:09.981Z,60.72
2019-03-26T16:05:39.297Z,60.81
2019-03-26T16:08:08.528Z,61.24
2019-03-26T16:10:37.611Z,61.63
2019-03-26T16:13:06.798Z,61.57
2019-03-26T16:15:44.033Z,63.49
2019-03-26T16:18:06.770Z,62.66
2019-03-26T16:20:35.954Z,62.96
2019-03-26T16:23:05.149Z,63.05
2019-03-26T16:25:34.284Z,62.96
2019-03-26T16:28:03.437Z,63.67
2019-03-26T16:30:34.602Z,63.84
2019-03-26T16:33:03.792Z,64.08
2019-03-26T16:35:32.849Z,64.23
2019-03-26T16:38:01.968Z,64.95
2019-03-26T16:40:31.366Z,65.02
2019-03-26T16:43:00.419Z,65.91
2019-03-26T16:45:29.469Z,65.18
2019-03-26T16:47:58.531Z,66.32
2019-03-26T16:50:27.611Z,65.44
2019-03-26T16:52:56.743Z,66.00
2019-03-26T16:55:25.762Z,66.66
2019-03-26T16:57:55.404Z,66.42
2019-03-26T17:00:34.520Z,66.49
2019-03-26T17:03:03.576Z,66.45
2019-03-26T17:05:32.678Z,66.49
2019-03-26T17:08:01.961Z,67.05
2019-03-26T17:10:31.149Z,67.13
2019-03-26T17:13:00.829Z,66.96
2019-03-26T17:15:29.957Z,67.18
2019-03-26T17:17:59.664Z,67.07
2019-03-26T17:20:28.758Z,66.95
2019-03-26T17:22:57.873Z,67.33
2019-03-26T17:25:27.065Z,67.44
2019-03-26T17:27:56.127Z,68.47
2019-03-26T17:30:25.172Z,68.50
2019-03-26T17:32:54.310Z,67.73
2019-03-26T17:35:23.428Z,68.29
2019-03-26T17:37:59.488Z,68.25
2019-03-26T17:40:23.500Z,68.53
2019-03-26T17:42:52.579Z,68.47
2019-03-26T17:45:21.619Z,68.35
2019-03-26T17:47:50.655Z,68.32
2019-03-26T17:50:19.718Z,68.55
2019-03-26T17:52:48.757Z,68.32
2019-03-26T17:55:17.851Z,68.61
2019-03-26T17:57:46.928Z,68.36
2019-03-26T18:00:17.871Z,68.68
2019-03-26T18:02:46.938Z,68.66
2019-03-26T18:05:28.958Z,68.82
2019-03-26T18:07:58.380Z,68.82
2019-03-26T18:10:27.421Z,68.36
2019-03-26T18:12:56.541Z,69.09
2019-03-26T18:15:25.671Z,68.56
2019-03-26T18:17:54.696Z,68.40
2019-03-26T18:20:32.615Z,68.65
2019-03-26T18:22:54.646Z,69.00
2019-03-26T18:25:23.687Z,68.35
2019-03-26T18:27:52.813Z,68.66
2019-03-26T18:30:21.868Z,68.95
2019-03-26T18:32:50.932Z,69.09
2019-03-26T18:35:20.065Z,68.98
2019-03-26T18:37:49.196Z,68.78
2019-03-26T18:40:18.323Z,69.64
2019-03-26T18:42:47.807Z,68.86
2019-03-26T18:45:16.846Z,68.92
2019-03-26T18:47:45.972Z,69.03
2019-03-26T18:50:16.276Z,70.34
2019-03-26T18:52:45.316Z,69.74
2019-03-26T18:55:14.457Z,70.26
2019-03-26T18:57:43.604Z,69.58
2019-03-26T19:00:13.129Z,69.71
2019-03-26T19:02:42.155Z,69.65
2019-03-26T19:05:11.209Z,69.33
2019-03-26T19:07:40.326Z,69.31
2019-03-26T19:10:25.581Z,70.05
2019-03-26T19:12:57.166Z,69.55
2019-03-26T19:15:25.769Z,69.45
2019-03-26T19:17:55.219Z,69.51
2019-03-26T19:20:24.340Z,69.55
2019-03-26T19:22:53.463Z,69.95
2019-03-26T19:25:22.581Z,70.29
2019-03-26T19:27:51.613Z,69.99
2019-03-26T19:30:20.734Z,69.60
2019-03-26T19:32:49.787Z,70.22
2019-03-26T19:35:18.847Z,69.64
2019-03-26T19:37:48.591Z,70.02
2019-03-26T19:40:17.631Z,70.58
2019-03-26T19:42:46.655Z,70.65
2019-03-26T19:45:15.726Z,69.98
2019-03-26T19:47:44.788Z,70.86
2019-03-26T19:50:14.290Z,70.64
2019-03-26T19:52:43.405Z,69.94
2019-03-26T19:55:12.744Z,70.18
2019-03-26T19:57:41.813Z,70.51
2019-03-26T20:00:12.149Z,70.03
2019-03-26T20:02:41.191Z,69.89
2019-03-26T20:05:11.022Z,71.06
2019-03-26T20:07:40.092Z,70.49
2019-03-26T20:10:10.067Z,70.35
2019-03-26T20:12:39.517Z,70.58
2019-03-26T20:15:08.996Z,73.53
2019-03-26T20:17:38.051Z,66.93
2019-03-26T20:20:07.848Z,68.08
2019-03-26T20:22:36.882Z,68.93
2019-03-26T20:25:05.990Z,69.35
2019-03-26T20:27:35.057Z,69.47
2019-03-26T20:30:04.168Z,69.72
2019-03-26T20:32:33.197Z,69.78
2019-03-26T20:35:02.619Z,69.76
2019-03-26T20:37:32.001Z,69.56
2019-03-26T20:40:01.460Z,68.55
2019-03-26T20:42:30.514Z,68.73
2019-03-26T20:44:59.908Z,68.45
2019-03-26T20:47:29.075Z,66.29
2019-03-26T20:49:58.208Z,66.93
2019-03-26T20:52:27.409Z,66.04
2019-03-26T20:54:56.464Z,67.44
2019-03-26T20:57:25.520Z,68.88
2019-03-26T20:59:54.577Z,69.96
2019-03-26T21:02:23.631Z,70.38
2019-03-26T21:04:52.668Z,70.54
2019-03-26T21:07:22.017Z,70.85
2019-03-26T21:09:51.146Z,70.72
2019-03-26T21:12:20.321Z,70.86
2019-03-26T21:14:49.364Z,70.79
2019-03-26T21:17:18.452Z,71.15
2019-03-26T21:19:47.603Z,70.87
2019-03-26T21:22:16.895Z,70.96
2019-03-26T21:24:45.980Z,71.15
2019-03-26T21:27:15.029Z,71.01
2019-03-26T21:29:44.118Z,71.31
2019-03-26T21:32:13.223Z,70.93
2019-03-26T21:34:42.441Z,70.86
2019-03-26T21:37:11.529Z,70.97
2019-03-26T21:39:40.565Z,70.79
2019-03-26T21:42:10.009Z,71.19
2019-03-26T21:44:39.098Z,70.90
2019-03-26T21:47:08.119Z,71.05
2019-03-26T21:49:37.173Z,71.15
2019-03-26T21:52:06.211Z,70.85
2019-03-26T21:54:35.342Z,70.71
2019-03-26T21:57:04.402Z,70.69
2019-03-26T21:59:33.449Z,70.67
2019-03-26T22:02:02.588Z,70.85
2019-03-26T22:04:31.643Z,70.72
2019-03-26T22:07:00.698Z,70.89
2019-03-26T22:09:29.842Z,70.76
2019-03-26T22:11:58.900Z,70.83
2019-03-26T22:14:27.990Z,70.92
2019-03-26T22:16:57.048Z,71.00
2019-03-26T22:19:28.889Z,71.02
2019-03-26T22:21:56.902Z,71.04
2019-03-26T22:24:25.940Z,71.27
2019-03-26T22:26:55.258Z,71.02
2019-03-26T22:29:24.329Z,71.03
2019-03-26T22:31:56.246Z,71.03
2019-03-26T22:34:25.276Z,71.12
2019-03-26T22:36:54.316Z,71.03
2019-03-26T22:39:23.373Z,71.57
2019-03-26T22:41:55.328Z,71.73
2019-03-26T22:44:31.217Z,71.49
2019-03-26T22:46:55.136Z,71.89
2019-03-26T22:49:24.194Z,71.59
2019-03-26T22:51:53.242Z,71.35
2019-03-26T22:54:22.337Z,71.32
2019-03-26T22:56:51.668Z,71.16
2019-03-26T22:59:20.992Z,71.23
2019-03-26T23:01:52.533Z,71.11
2019-03-26T23:04:20.937Z,71.27
2019-03-26T23:06:50.087Z,71.30
2019-03-26T23:09:19.138Z,71.12
2019-03-26T23:11:48.201Z,71.07
2019-03-26T23:14:17.262Z,71.07
2019-03-26T23:16:46.302Z,71.09
2019-03-26T23:19:15.369Z,71.01
2019-03-26T23:21:44.410Z,71.08
2019-03-26T23:24:13.505Z,71.09
2019-03-26T23:26:42.577Z,71.06
2019-03-26T23:29:12.002Z,71.18
2019-03-26T23:31:41.098Z,71.13
2019-03-26T23:34:10.195Z,71.00
2019-03-26T23:36:39.253Z,71.02
2019-03-26T23:39:08.333Z,71.00
2019-03-26T23:41:39.696Z,70.86
2019-03-26T23:44:08.157Z,70.76
2019-03-26T23:46:37.222Z,70.69
2019-03-26T23:49:06.303Z,70.73
2019-03-26T23:51:35.385Z,70.79
2019-03-26T23:54:04.432Z,70.90
2019-03-26T23:56:33.548Z,70.86
2019-03-26T23:59:02.624Z,70.80
